Terminal Aerodrome Forecast
Issued by NWS

Home | Current Version | Previous Version | Text Only | Print | Product List | Glossary On
Versions: 1 2 3 4 5 6 7 8 9 10 11 12 13 14 15 16 17 18 19 20 21
708
FTUS43 KAPX 092335
TAFAPN
TAF
KAPN 092335Z 1000/1024 35010KT 5SM -SHSN BLSN OVC015
      TEMPO 1000/1003 2SM -SHSN
     FM100800 33009G15KT P6SM VCSH OVC020
     FM101400 32012G18KT P6SM VCSH BKN025=

USA.gov is the U.S. government's official web portal to all federal, state and local government web resources and services.